sensor_id;sensor_type;location;lat;lon;timestamp;P1;durP1;ratioP1;P2;durP2;ratioP2
60610;SDS011;46439;51.164;13.572;2023-02-28T00:01:27;8.10;;;3.40;;
60610;SDS011;46439;51.164;13.572;2023-02-28T00:03:56;5.30;;;3.30;;
60610;SDS011;46439;51.164;13.572;2023-02-28T00:06:25;7.00;;;3.10;;
60610;SDS011;46439;51.164;13.572;2023-02-28T00:08:53;6.60;;;3.40;;
60610;SDS011;46439;51.164;13.572;2023-02-28T00:11:22;7.20;;;3.80;;
60610;SDS011;46439;51.164;13.572;2023-02-28T00:13:51;8.30;;;4.40;;
60610;SDS011;46439;51.164;13.572;2023-02-28T00:16:20;8.30;;;4.40;;
60610;SDS011;46439;51.164;13.572;2023-02-28T00:18:49;8.60;;;4.60;;
60610;SDS011;46439;51.164;13.572;2023-02-28T00:21:18;7.30;;;4.10;;
60610;SDS011;46439;51.164;13.572;2023-02-28T00:23:47;8.50;;;4.20;;
60610;SDS011;46439;51.164;13.572;2023-02-28T00:26:18;9.20;;;4.70;;
60610;SDS011;46439;51.164;13.572;2023-02-28T00:28:47;9.80;;;4.90;;
60610;SDS011;46439;51.164;13.572;2023-02-28T00:31:19;7.10;;;4.20;;
60610;SDS011;46439;51.164;13.572;2023-02-28T00:33:47;9.90;;;4.90;;
60610;SDS011;46439;51.164;13.572;2023-02-28T00:36:18;9.10;;;4.90;;
60610;SDS011;46439;51.164;13.572;2023-02-28T00:38:46;10.10;;;4.40;;
60610;SDS011;46439;51.164;13.572;2023-02-28T00:41:15;7.80;;;4.20;;
60610;SDS011;46439;51.164;13.572;2023-02-28T00:43:44;8.90;;;3.90;;
60610;SDS011;46439;51.164;13.572;2023-02-28T00:46:12;5.40;;;3.20;;
60610;SDS011;46439;51.164;13.572;2023-02-28T00:48:41;9.70;;;4.40;;
60610;SDS011;46439;51.164;13.572;2023-02-28T00:51:10;7.70;;;4.00;;
60610;SDS011;46439;51.164;13.572;2023-02-28T00:53:38;6.80;;;3.80;;
60610;SDS011;46439;51.164;13.572;2023-02-28T00:56:07;7.80;;;3.60;;
60610;SDS011;46439;51.164;13.572;2023-02-28T00:58:36;8.40;;;4.00;;
60610;SDS011;46439;51.164;13.572;2023-02-28T01:01:04;5.90;;;3.50;;
60610;SDS011;46439;51.164;13.572;2023-02-28T01:03:33;8.00;;;4.00;;
60610;SDS011;46439;51.164;13.572;2023-02-28T01:06:02;9.40;;;4.30;;
60610;SDS011;46439;51.164;13.572;2023-02-28T01:08:31;7.40;;;4.40;;
60610;SDS011;46439;51.164;13.572;2023-02-28T01:11:09;9.30;;;4.10;;
60610;SDS011;46439;51.164;13.572;2023-02-28T01:13:39;8.50;;;4.60;;
60610;SDS011;46439;51.164;13.572;2023-02-28T01:16:08;7.80;;;4.50;;
60610;SDS011;46439;51.164;13.572;2023-02-28T01:18:36;7.40;;;4.10;;
60610;SDS011;46439;51.164;13.572;2023-02-28T01:21:05;7.40;;;4.20;;
60610;SDS011;46439;51.164;13.572;2023-02-28T01:23:36;8.20;;;3.90;;
60610;SDS011;46439;51.164;13.572;2023-02-28T01:26:05;6.90;;;4.00;;
60610;SDS011;46439;51.164;13.572;2023-02-28T01:28:35;9.90;;;4.10;;
60610;SDS011;46439;51.164;13.572;2023-02-28T01:31:03;8.90;;;4.70;;
60610;SDS011;46439;51.164;13.572;2023-02-28T01:33:32;8.50;;;4.40;;
60610;SDS011;46439;51.164;13.572;2023-02-28T01:36:02;8.40;;;5.10;;
60610;SDS011;46439;51.164;13.572;2023-02-28T01:38:32;8.50;;;5.60;;
60610;SDS011;46439;51.164;13.572;2023-02-28T01:41:01;12.60;;;5.90;;
60610;SDS011;46439;51.164;13.572;2023-02-28T01:43:30;10.90;;;5.60;;
60610;SDS011;46439;51.164;13.572;2023-02-28T01:46:19;7.50;;;4.50;;
60610;SDS011;46439;51.164;13.572;2023-02-28T01:48:49;8.20;;;3.90;;
60610;SDS011;46439;51.164;13.572;2023-02-28T01:51:21;7.50;;;3.90;;
60610;SDS011;46439;51.164;13.572;2023-02-28T01:53:55;7.90;;;3.50;;
60610;SDS011;46439;51.164;13.572;2023-02-28T01:56:27;8.80;;;3.80;;
60610;SDS011;46439;51.164;13.572;2023-02-28T01:59:00;9.50;;;4.10;;
60610;SDS011;46439;51.164;13.572;2023-02-28T02:01:29;10.60;;;4.50;;
60610;SDS011;46439;51.164;13.572;2023-02-28T02:03:58;12.40;;;5.40;;
60610;SDS011;46439;51.164;13.572;2023-02-28T02:06:29;13.70;;;5.00;;
60610;SDS011;46439;51.164;13.572;2023-02-28T02:11:29;7.00;;;4.20;;
60610;SDS011;46439;51.164;13.572;2023-02-28T02:14:03;9.70;;;4.50;;
60610;SDS011;46439;51.164;13.572;2023-02-28T02:17:00;7.60;;;3.90;;
60610;SDS011;46439;51.164;13.572;2023-02-28T02:19:46;7.60;;;3.90;;
60610;SDS011;46439;51.164;13.572;2023-02-28T02:25:48;7.70;;;4.00;;
60610;SDS011;46439;51.164;13.572;2023-02-28T02:31:35;9.90;;;3.90;;
60610;SDS011;46439;51.164;13.572;2023-02-28T02:34:39;6.80;;;3.80;;
60610;SDS011;46439;51.164;13.572;2023-02-28T02:37:15;6.90;;;4.00;;
60610;SDS011;46439;51.164;13.572;2023-02-28T02:39:52;11.30;;;4.50;;
60610;SDS011;46439;51.164;13.572;2023-02-28T02:42:27;8.10;;;4.00;;
60610;SDS011;46439;51.164;13.572;2023-02-28T02:45:03;7.50;;;4.10;;
60610;SDS011;46439;51.164;13.572;2023-02-28T02:47:35;8.60;;;4.40;;
60610;SDS011;46439;51.164;13.572;2023-02-28T02:50:07;8.00;;;4.40;;
60610;SDS011;46439;51.164;13.572;2023-02-28T02:55:24;8.60;;;3.90;;
60610;SDS011;46439;51.164;13.572;2023-02-28T02:57:53;10.30;;;4.00;;
60610;SDS011;46439;51.164;13.572;2023-02-28T03:03:03;8.20;;;4.60;;
60610;SDS011;46439;51.164;13.572;2023-02-28T03:05:35;8.70;;;3.70;;
60610;SDS011;46439;51.164;13.572;2023-02-28T03:08:11;7.00;;;3.90;;
60610;SDS011;46439;51.164;13.572;2023-02-28T03:10:40;8.60;;;4.10;;
60610;SDS011;46439;51.164;13.572;2023-02-28T03:13:17;7.60;;;4.00;;
60610;SDS011;46439;51.164;13.572;2023-02-28T03:16:07;9.90;;;3.80;;
60610;SDS011;46439;51.164;13.572;2023-02-28T03:18:54;8.40;;;4.10;;
60610;SDS011;46439;51.164;13.572;2023-02-28T03:21:31;7.70;;;4.00;;
60610;SDS011;46439;51.164;13.572;2023-02-28T03:24:05;6.00;;;3.60;;
60610;SDS011;46439;51.164;13.572;2023-02-28T03:26:39;8.40;;;4.20;;
60610;SDS011;46439;51.164;13.572;2023-02-28T03:29:13;7.70;;;4.20;;
60610;SDS011;46439;51.164;13.572;2023-02-28T03:31:50;8.10;;;4.00;;
60610;SDS011;46439;51.164;13.572;2023-02-28T03:34:24;6.60;;;3.80;;
60610;SDS011;46439;51.164;13.572;2023-02-28T03:36:57;8.10;;;4.00;;
60610;SDS011;46439;51.164;13.572;2023-02-28T03:39:31;7.10;;;3.70;;
60610;SDS011;46439;51.164;13.572;2023-02-28T03:42:05;7.70;;;4.10;;
60610;SDS011;46439;51.164;13.572;2023-02-28T03:44:37;7.60;;;4.10;;
60610;SDS011;46439;51.164;13.572;2023-02-28T03:47:10;7.60;;;4.40;;
60610;SDS011;46439;51.164;13.572;2023-02-28T03:49:42;7.60;;;4.00;;
60610;SDS011;46439;51.164;13.572;2023-02-28T03:52:14;8.50;;;4.20;;
60610;SDS011;46439;51.164;13.572;2023-02-28T03:54:45;8.80;;;4.10;;
60610;SDS011;46439;51.164;13.572;2023-02-28T03:57:20;11.40;;;3.50;;
60610;SDS011;46439;51.164;13.572;2023-02-28T03:59:55;7.00;;;3.70;;
60610;SDS011;46439;51.164;13.572;2023-02-28T04:02:26;8.70;;;4.20;;
60610;SDS011;46439;51.164;13.572;2023-02-28T04:04:55;7.00;;;3.80;;
60610;SDS011;46439;51.164;13.572;2023-02-28T04:07:24;8.00;;;4.10;;
60610;SDS011;46439;51.164;13.572;2023-02-28T04:09:55;6.80;;;3.80;;
60610;SDS011;46439;51.164;13.572;2023-02-28T04:12:24;6.70;;;3.70;;
60610;SDS011;46439;51.164;13.572;2023-02-28T04:14:52;6.60;;;3.60;;
60610;SDS011;46439;51.164;13.572;2023-02-28T04:17:21;6.70;;;3.70;;
60610;SDS011;46439;51.164;13.572;2023-02-28T04:19:49;8.70;;;4.10;;
60610;SDS011;46439;51.164;13.572;2023-02-28T04:22:18;7.60;;;3.90;;
60610;SDS011;46439;51.164;13.572;2023-02-28T04:24:46;7.70;;;3.80;;
60610;SDS011;46439;51.164;13.572;2023-02-28T04:27:15;9.20;;;4.50;;
60610;SDS011;46439;51.164;13.572;2023-02-28T04:29:43;7.80;;;4.30;;
60610;SDS011;46439;51.164;13.572;2023-02-28T04:32:11;8.00;;;4.60;;
60610;SDS011;46439;51.164;13.572;2023-02-28T04:34:40;9.20;;;4.70;;
60610;SDS011;46439;51.164;13.572;2023-02-28T04:37:08;9.10;;;4.40;;
60610;SDS011;46439;51.164;13.572;2023-02-28T04:39:37;9.50;;;4.90;;
60610;SDS011;46439;51.164;13.572;2023-02-28T04:42:06;13.90;;;5.60;;
60610;SDS011;46439;51.164;13.572;2023-02-28T04:44:34;9.10;;;5.50;;
60610;SDS011;46439;51.164;13.572;2023-02-28T04:47:03;12.90;;;6.60;;
60610;SDS011;46439;51.164;13.572;2023-02-28T04:49:32;13.30;;;5.90;;
60610;SDS011;46439;51.164;13.572;2023-02-28T04:52:01;12.60;;;6.00;;
60610;SDS011;46439;51.164;13.572;2023-02-28T04:54:30;10.30;;;5.00;;
60610;SDS011;46439;51.164;13.572;2023-02-28T04:56:58;10.40;;;5.10;;
60610;SDS011;46439;51.164;13.572;2023-02-28T04:59:28;11.40;;;5.70;;
60610;SDS011;46439;51.164;13.572;2023-02-28T05:01:56;9.10;;;4.80;;
60610;SDS011;46439;51.164;13.572;2023-02-28T05:04:25;9.60;;;4.90;;
60610;SDS011;46439;51.164;13.572;2023-02-28T05:06:53;9.00;;;5.00;;
60610;SDS011;46439;51.164;13.572;2023-02-28T05:09:21;12.10;;;5.40;;
60610;SDS011;46439;51.164;13.572;2023-02-28T05:11:50;9.10;;;4.70;;
60610;SDS011;46439;51.164;13.572;2023-02-28T05:14:19;10.50;;;4.70;;
60610;SDS011;46439;51.164;13.572;2023-02-28T05:16:47;12.90;;;6.00;;
60610;SDS011;46439;51.164;13.572;2023-02-28T05:19:16;11.70;;;5.30;;
60610;SDS011;46439;51.164;13.572;2023-02-28T05:21:49;11.10;;;5.30;;
60610;SDS011;46439;51.164;13.572;2023-02-28T05:24:19;9.80;;;5.00;;
60610;SDS011;46439;51.164;13.572;2023-02-28T05:26:51;8.60;;;4.70;;
60610;SDS011;46439;51.164;13.572;2023-02-28T05:29:21;13.80;;;5.90;;
60610;SDS011;46439;51.164;13.572;2023-02-28T05:31:49;12.60;;;6.00;;
60610;SDS011;46439;51.164;13.572;2023-02-28T05:34:18;10.60;;;5.20;;
60610;SDS011;46439;51.164;13.572;2023-02-28T05:36:46;14.00;;;5.50;;
60610;SDS011;46439;51.164;13.572;2023-02-28T05:39:15;10.80;;;5.50;;
60610;SDS011;46439;51.164;13.572;2023-02-28T05:41:44;11.70;;;6.40;;
60610;SDS011;46439;51.164;13.572;2023-02-28T05:44:12;14.50;;;7.50;;
60610;SDS011;46439;51.164;13.572;2023-02-28T05:46:41;15.40;;;9.10;;
60610;SDS011;46439;51.164;13.572;2023-02-28T05:49:10;18.40;;;9.80;;
60610;SDS011;46439;51.164;13.572;2023-02-28T05:51:38;13.00;;;7.90;;
60610;SDS011;46439;51.164;13.572;2023-02-28T05:54:07;13.50;;;7.90;;
60610;SDS011;46439;51.164;13.572;2023-02-28T05:56:36;16.20;;;8.20;;
60610;SDS011;46439;51.164;13.572;2023-02-28T05:59:06;15.80;;;8.20;;
60610;SDS011;46439;51.164;13.572;2023-02-28T06:01:35;13.80;;;8.20;;
60610;SDS011;46439;51.164;13.572;2023-02-28T06:04:06;15.30;;;7.90;;
60610;SDS011;46439;51.164;13.572;2023-02-28T06:06:36;16.70;;;8.00;;
60610;SDS011;46439;51.164;13.572;2023-02-28T06:09:05;14.70;;;7.70;;
60610;SDS011;46439;51.164;13.572;2023-02-28T06:11:34;17.10;;;8.30;;
60610;SDS011;46439;51.164;13.572;2023-02-28T06:14:03;18.20;;;8.50;;
60610;SDS011;46439;51.164;13.572;2023-02-28T06:16:33;16.70;;;7.70;;
60610;SDS011;46439;51.164;13.572;2023-02-28T06:19:03;13.90;;;7.80;;
60610;SDS011;46439;51.164;13.572;2023-02-28T06:21:31;50.90;;;21.00;;
60610;SDS011;46439;51.164;13.572;2023-02-28T06:24:00;27.90;;;13.60;;
60610;SDS011;46439;51.164;13.572;2023-02-28T06:26:30;28.60;;;13.50;;
60610;SDS011;46439;51.164;13.572;2023-02-28T06:28:59;24.80;;;11.80;;
60610;SDS011;46439;51.164;13.572;2023-02-28T06:31:27;15.50;;;9.10;;
60610;SDS011;46439;51.164;13.572;2023-02-28T06:33:56;15.00;;;8.70;;
60610;SDS011;46439;51.164;13.572;2023-02-28T06:36:25;20.70;;;9.30;;
60610;SDS011;46439;51.164;13.572;2023-02-28T06:38:54;15.60;;;9.30;;
60610;SDS011;46439;51.164;13.572;2023-02-28T06:41:23;21.70;;;10.60;;
60610;SDS011;46439;51.164;13.572;2023-02-28T06:43:53;18.30;;;10.50;;
60610;SDS011;46439;51.164;13.572;2023-02-28T06:46:22;20.00;;;10.00;;
60610;SDS011;46439;51.164;13.572;2023-02-28T06:48:51;56.50;;;24.30;;
60610;SDS011;46439;51.164;13.572;2023-02-28T06:51:20;36.20;;;15.40;;
60610;SDS011;46439;51.164;13.572;2023-02-28T06:53:50;23.80;;;13.30;;
60610;SDS011;46439;51.164;13.572;2023-02-28T06:56:19;21.30;;;12.40;;
60610;SDS011;46439;51.164;13.572;2023-02-28T06:58:48;27.70;;;15.70;;
60610;SDS011;46439;51.164;13.572;2023-02-28T07:01:19;26.80;;;15.00;;
60610;SDS011;46439;51.164;13.572;2023-02-28T07:03:50;30.40;;;16.60;;
60610;SDS011;46439;51.164;13.572;2023-02-28T07:06:19;30.00;;;15.80;;
60610;SDS011;46439;51.164;13.572;2023-02-28T07:08:49;29.00;;;13.70;;
60610;SDS011;46439;51.164;13.572;2023-02-28T07:11:22;22.40;;;11.70;;
60610;SDS011;46439;51.164;13.572;2023-02-28T07:13:52;21.00;;;11.60;;
60610;SDS011;46439;51.164;13.572;2023-02-28T07:16:22;24.80;;;12.10;;
60610;SDS011;46439;51.164;13.572;2023-02-28T07:18:53;18.90;;;10.30;;
60610;SDS011;46439;51.164;13.572;2023-02-28T07:21:22;22.90;;;10.90;;
60610;SDS011;46439;51.164;13.572;2023-02-28T07:23:51;24.90;;;11.20;;
60610;SDS011;46439;51.164;13.572;2023-02-28T07:26:20;21.40;;;11.50;;
60610;SDS011;46439;51.164;13.572;2023-02-28T07:28:48;23.90;;;13.00;;
60610;SDS011;46439;51.164;13.572;2023-02-28T07:31:17;31.60;;;17.30;;
60610;SDS011;46439;51.164;13.572;2023-02-28T07:33:46;25.40;;;14.00;;
60610;SDS011;46439;51.164;13.572;2023-02-28T07:36:16;19.90;;;11.00;;
60610;SDS011;46439;51.164;13.572;2023-02-28T07:38:48;16.80;;;9.40;;
60610;SDS011;46439;51.164;13.572;2023-02-28T07:41:17;15.80;;;8.10;;
60610;SDS011;46439;51.164;13.572;2023-02-28T07:43:48;14.80;;;7.70;;
60610;SDS011;46439;51.164;13.572;2023-02-28T07:46:19;15.50;;;8.10;;
60610;SDS011;46439;51.164;13.572;2023-02-28T07:48:48;15.10;;;7.40;;
60610;SDS011;46439;51.164;13.572;2023-02-28T07:51:16;14.40;;;6.70;;
60610;SDS011;46439;51.164;13.572;2023-02-28T07:53:45;12.10;;;6.80;;
60610;SDS011;46439;51.164;13.572;2023-02-28T07:56:13;12.20;;;7.10;;
60610;SDS011;46439;51.164;13.572;2023-02-28T07:58:42;15.10;;;7.40;;
60610;SDS011;46439;51.164;13.572;2023-02-28T08:01:10;12.40;;;6.40;;
60610;SDS011;46439;51.164;13.572;2023-02-28T08:03:40;11.40;;;7.00;;
60610;SDS011;46439;51.164;13.572;2023-02-28T08:06:14;15.40;;;7.90;;
60610;SDS011;46439;51.164;13.572;2023-02-28T08:08:44;17.80;;;7.00;;
60610;SDS011;46439;51.164;13.572;2023-02-28T08:11:13;13.40;;;7.50;;
60610;SDS011;46439;51.164;13.572;2023-02-28T08:13:42;12.60;;;7.30;;
60610;SDS011;46439;51.164;13.572;2023-02-28T08:16:12;15.60;;;7.30;;
60610;SDS011;46439;51.164;13.572;2023-02-28T08:18:48;14.50;;;7.70;;
60610;SDS011;46439;51.164;13.572;2023-02-28T08:21:17;12.80;;;7.50;;
60610;SDS011;46439;51.164;13.572;2023-02-28T08:23:47;14.80;;;8.20;;
60610;SDS011;46439;51.164;13.572;2023-02-28T08:26:17;12.10;;;7.40;;
60610;SDS011;46439;51.164;13.572;2023-02-28T08:28:46;12.50;;;6.90;;
60610;SDS011;46439;51.164;13.572;2023-02-28T08:31:16;14.30;;;7.90;;
60610;SDS011;46439;51.164;13.572;2023-02-28T08:33:45;14.60;;;8.50;;
60610;SDS011;46439;51.164;13.572;2023-02-28T08:36:16;17.80;;;8.20;;
60610;SDS011;46439;51.164;13.572;2023-02-28T08:38:45;14.50;;;7.70;;
60610;SDS011;46439;51.164;13.572;2023-02-28T08:41:14;14.20;;;7.80;;
60610;SDS011;46439;51.164;13.572;2023-02-28T08:43:42;11.50;;;6.20;;
60610;SDS011;46439;51.164;13.572;2023-02-28T08:46:12;11.30;;;5.30;;
60610;SDS011;46439;51.164;13.572;2023-02-28T08:48:41;10.90;;;5.60;;
60610;SDS011;46439;51.164;13.572;2023-02-28T08:51:11;9.90;;;5.60;;
60610;SDS011;46439;51.164;13.572;2023-02-28T08:53:44;9.70;;;5.00;;
60610;SDS011;46439;51.164;13.572;2023-02-28T08:56:16;10.30;;;4.70;;
60610;SDS011;46439;51.164;13.572;2023-02-28T08:58:45;12.60;;;4.80;;
60610;SDS011;46439;51.164;13.572;2023-02-28T09:01:15;9.20;;;4.90;;
60610;SDS011;46439;51.164;13.572;2023-02-28T09:03:45;8.30;;;4.70;;
60610;SDS011;46439;51.164;13.572;2023-02-28T09:06:15;10.70;;;5.10;;
60610;SDS011;46439;51.164;13.572;2023-02-28T09:08:45;10.20;;;4.90;;
60610;SDS011;46439;51.164;13.572;2023-02-28T09:11:14;11.40;;;5.20;;
60610;SDS011;46439;51.164;13.572;2023-02-28T09:13:43;12.40;;;5.10;;
60610;SDS011;46439;51.164;13.572;2023-02-28T09:16:12;9.30;;;5.00;;
60610;SDS011;46439;51.164;13.572;2023-02-28T09:18:42;7.70;;;4.80;;
60610;SDS011;46439;51.164;13.572;2023-02-28T09:21:12;11.10;;;5.40;;
60610;SDS011;46439;51.164;13.572;2023-02-28T09:23:42;10.50;;;5.00;;
60610;SDS011;46439;51.164;13.572;2023-02-28T09:26:14;9.10;;;5.00;;
60610;SDS011;46439;51.164;13.572;2023-02-28T09:28:47;10.20;;;4.90;;
60610;SDS011;46439;51.164;13.572;2023-02-28T09:31:29;12.70;;;5.40;;
60610;SDS011;46439;51.164;13.572;2023-02-28T09:34:04;9.00;;;4.90;;
60610;SDS011;46439;51.164;13.572;2023-02-28T09:36:33;10.30;;;4.80;;
60610;SDS011;46439;51.164;13.572;2023-02-28T09:39:03;9.00;;;4.80;;
60610;SDS011;46439;51.164;13.572;2023-02-28T09:41:36;10.80;;;4.70;;
60610;SDS011;46439;51.164;13.572;2023-02-28T09:44:15;12.00;;;5.40;;
60610;SDS011;46439;51.164;13.572;2023-02-28T09:46:49;10.90;;;4.90;;
60610;SDS011;46439;51.164;13.572;2023-02-28T09:49:24;9.00;;;4.40;;
60610;SDS011;46439;51.164;13.572;2023-02-28T09:51:59;9.50;;;5.40;;
60610;SDS011;46439;51.164;13.572;2023-02-28T09:57:00;9.20;;;4.60;;
60610;SDS011;46439;51.164;13.572;2023-02-28T09:59:36;9.70;;;4.90;;
60610;SDS011;46439;51.164;13.572;2023-02-28T10:02:16;12.70;;;5.40;;
60610;SDS011;46439;51.164;13.572;2023-02-28T10:05:02;12.40;;;5.40;;
60610;SDS011;46439;51.164;13.572;2023-02-28T10:07:40;13.40;;;5.60;;
60610;SDS011;46439;51.164;13.572;2023-02-28T10:10:22;11.70;;;4.90;;
60610;SDS011;46439;51.164;13.572;2023-02-28T10:12:55;10.30;;;5.40;;
60610;SDS011;46439;51.164;13.572;2023-02-28T10:15:27;11.20;;;5.20;;
60610;SDS011;46439;51.164;13.572;2023-02-28T10:20:28;10.90;;;5.50;;
60610;SDS011;46439;51.164;13.572;2023-02-28T10:23:04;10.10;;;5.60;;
60610;SDS011;46439;51.164;13.572;2023-02-28T10:25:39;10.20;;;5.80;;
60610;SDS011;46439;51.164;13.572;2023-02-28T10:28:15;10.00;;;5.50;;
60610;SDS011;46439;51.164;13.572;2023-02-28T10:30:45;10.60;;;5.10;;
60610;SDS011;46439;51.164;13.572;2023-02-28T10:33:23;9.30;;;5.40;;
60610;SDS011;46439;51.164;13.572;2023-02-28T10:35:57;10.90;;;5.60;;
60610;SDS011;46439;51.164;13.572;2023-02-28T10:38:27;11.50;;;5.50;;
60610;SDS011;46439;51.164;13.572;2023-02-28T10:41:07;12.70;;;6.40;;
60610;SDS011;46439;51.164;13.572;2023-02-28T10:43:38;11.60;;;5.90;;
60610;SDS011;46439;51.164;13.572;2023-02-28T10:46:11;10.00;;;5.80;;
60610;SDS011;46439;51.164;13.572;2023-02-28T10:48:59;13.20;;;6.30;;
60610;SDS011;46439;51.164;13.572;2023-02-28T10:51:38;11.20;;;5.60;;
60610;SDS011;46439;51.164;13.572;2023-02-28T10:54:11;9.90;;;5.60;;
60610;SDS011;46439;51.164;13.572;2023-02-28T10:56:44;8.90;;;4.80;;
60610;SDS011;46439;51.164;13.572;2023-02-28T10:59:31;9.60;;;5.40;;
60610;SDS011;46439;51.164;13.572;2023-02-28T11:02:00;11.70;;;6.60;;
60610;SDS011;46439;51.164;13.572;2023-02-28T11:04:49;15.10;;;6.60;;
60610;SDS011;46439;51.164;13.572;2023-02-28T11:07:18;12.20;;;6.10;;
60610;SDS011;46439;51.164;13.572;2023-02-28T11:09:49;14.10;;;7.50;;
60610;SDS011;46439;51.164;13.572;2023-02-28T11:12:23;9.90;;;5.80;;
60610;SDS011;46439;51.164;13.572;2023-02-28T11:14:56;13.40;;;6.60;;
60610;SDS011;46439;51.164;13.572;2023-02-28T11:17:29;9.20;;;6.00;;
60610;SDS011;46439;51.164;13.572;2023-02-28T11:19:59;11.50;;;6.30;;
60610;SDS011;46439;51.164;13.572;2023-02-28T11:22:31;14.10;;;6.80;;
60610;SDS011;46439;51.164;13.572;2023-02-28T11:25:06;13.20;;;6.20;;
60610;SDS011;46439;51.164;13.572;2023-02-28T11:27:46;9.90;;;5.90;;
60610;SDS011;46439;51.164;13.572;2023-02-28T11:30:27;14.40;;;6.90;;
60610;SDS011;46439;51.164;13.572;2023-02-28T11:32:58;11.90;;;7.00;;
60610;SDS011;46439;51.164;13.572;2023-02-28T11:35:28;11.00;;;6.80;;
60610;SDS011;46439;51.164;13.572;2023-02-28T11:38:01;14.10;;;6.60;;
60610;SDS011;46439;51.164;13.572;2023-02-28T11:40:35;13.80;;;8.20;;
60610;SDS011;46439;51.164;13.572;2023-02-28T11:43:13;13.30;;;7.50;;
60610;SDS011;46439;51.164;13.572;2023-02-28T11:45:58;17.80;;;8.40;;
60610;SDS011;46439;51.164;13.572;2023-02-28T11:48:43;11.70;;;5.60;;
60610;SDS011;46439;51.164;13.572;2023-02-28T11:51:21;17.00;;;8.10;;
60610;SDS011;46439;51.164;13.572;2023-02-28T11:53:58;13.70;;;7.50;;
60610;SDS011;46439;51.164;13.572;2023-02-28T11:56:41;13.10;;;6.80;;
60610;SDS011;46439;51.164;13.572;2023-02-28T11:59:18;10.60;;;5.70;;
60610;SDS011;46439;51.164;13.572;2023-02-28T12:02:05;12.80;;;7.40;;
60610;SDS011;46439;51.164;13.572;2023-02-28T12:04:50;12.90;;;7.60;;
60610;SDS011;46439;51.164;13.572;2023-02-28T12:07:29;15.40;;;8.20;;
60610;SDS011;46439;51.164;13.572;2023-02-28T12:10:09;13.20;;;7.30;;
60610;SDS011;46439;51.164;13.572;2023-02-28T12:12:48;11.10;;;7.10;;
60610;SDS011;46439;51.164;13.572;2023-02-28T12:15:36;11.10;;;6.40;;
60610;SDS011;46439;51.164;13.572;2023-02-28T12:18:21;13.30;;;6.50;;
60610;SDS011;46439;51.164;13.572;2023-02-28T12:21:02;15.40;;;7.30;;
60610;SDS011;46439;51.164;13.572;2023-02-28T12:23:43;12.80;;;7.50;;
60610;SDS011;46439;51.164;13.572;2023-02-28T12:26:36;12.30;;;7.20;;
60610;SDS011;46439;51.164;13.572;2023-02-28T12:29:10;12.00;;;7.70;;
60610;SDS011;46439;51.164;13.572;2023-02-28T12:31:45;11.80;;;6.40;;
60610;SDS011;46439;51.164;13.572;2023-02-28T12:34:17;13.30;;;7.80;;
60610;SDS011;46439;51.164;13.572;2023-02-28T12:36:49;13.20;;;6.30;;
60610;SDS011;46439;51.164;13.572;2023-02-28T12:39:23;15.70;;;7.90;;
60610;SDS011;46439;51.164;13.572;2023-02-28T12:41:59;14.40;;;7.90;;
60610;SDS011;46439;51.164;13.572;2023-02-28T12:44:35;15.60;;;8.50;;
60610;SDS011;46439;51.164;13.572;2023-02-28T12:47:09;13.30;;;8.50;;
60610;SDS011;46439;51.164;13.572;2023-02-28T12:49:42;15.00;;;8.40;;
60610;SDS011;46439;51.164;13.572;2023-02-28T12:52:17;17.60;;;8.10;;
60610;SDS011;46439;51.164;13.572;2023-02-28T12:54:51;11.90;;;7.20;;
60610;SDS011;46439;51.164;13.572;2023-02-28T12:57:27;12.60;;;6.50;;
60610;SDS011;46439;51.164;13.572;2023-02-28T13:00:04;14.70;;;8.50;;
60610;SDS011;46439;51.164;13.572;2023-02-28T13:05:49;13.40;;;7.70;;
60610;SDS011;46439;51.164;13.572;2023-02-28T13:08:47;15.50;;;8.60;;
60610;SDS011;46439;51.164;13.572;2023-02-28T13:11:43;11.50;;;6.40;;
60610;SDS011;46439;51.164;13.572;2023-02-28T13:14:24;10.50;;;6.50;;
60610;SDS011;46439;51.164;13.572;2023-02-28T13:17:01;15.30;;;7.80;;
60610;SDS011;46439;51.164;13.572;2023-02-28T13:19:40;13.10;;;7.40;;
60610;SDS011;46439;51.164;13.572;2023-02-28T13:22:17;14.40;;;8.00;;
60610;SDS011;46439;51.164;13.572;2023-02-28T13:25:02;17.70;;;9.00;;
60610;SDS011;46439;51.164;13.572;2023-02-28T13:27:52;16.80;;;8.30;;
60610;SDS011;46439;51.164;13.572;2023-02-28T13:33:29;13.90;;;8.00;;
60610;SDS011;46439;51.164;13.572;2023-02-28T13:36:09;15.50;;;8.40;;
60610;SDS011;46439;51.164;13.572;2023-02-28T13:38:49;14.70;;;9.30;;
60610;SDS011;46439;51.164;13.572;2023-02-28T13:44:18;16.00;;;8.40;;
60610;SDS011;46439;51.164;13.572;2023-02-28T13:49:54;16.20;;;8.90;;
60610;SDS011;46439;51.164;13.572;2023-02-28T13:52:48;15.40;;;8.10;;
60610;SDS011;46439;51.164;13.572;2023-02-28T13:55:28;12.90;;;8.20;;
60610;SDS011;46439;51.164;13.572;2023-02-28T13:58:08;13.90;;;8.20;;
60610;SDS011;46439;51.164;13.572;2023-02-28T14:01:08;13.20;;;7.10;;
60610;SDS011;46439;51.164;13.572;2023-02-28T14:03:57;14.40;;;7.80;;
60610;SDS011;46439;51.164;13.572;2023-02-28T14:06:45;12.00;;;7.40;;
60610;SDS011;46439;51.164;13.572;2023-02-28T14:09:21;12.10;;;7.80;;
60610;SDS011;46439;51.164;13.572;2023-02-28T14:11:54;11.10;;;5.60;;
60610;SDS011;46439;51.164;13.572;2023-02-28T14:17:23;16.20;;;8.60;;
60610;SDS011;46439;51.164;13.572;2023-02-28T14:19:52;17.10;;;8.10;;
60610;SDS011;46439;51.164;13.572;2023-02-28T14:25:25;16.60;;;8.70;;
60610;SDS011;46439;51.164;13.572;2023-02-28T14:28:04;15.00;;;8.30;;
60610;SDS011;46439;51.164;13.572;2023-02-28T14:30:59;14.40;;;7.70;;
60610;SDS011;46439;51.164;13.572;2023-02-28T14:33:45;14.60;;;7.60;;
60610;SDS011;46439;51.164;13.572;2023-02-28T14:36:24;16.20;;;8.30;;
60610;SDS011;46439;51.164;13.572;2023-02-28T14:38:59;14.40;;;9.00;;
60610;SDS011;46439;51.164;13.572;2023-02-28T14:41:33;14.10;;;9.00;;
60610;SDS011;46439;51.164;13.572;2023-02-28T14:44:13;16.70;;;8.90;;
60610;SDS011;46439;51.164;13.572;2023-02-28T14:46:44;14.80;;;8.90;;
60610;SDS011;46439;51.164;13.572;2023-02-28T14:49:17;16.00;;;9.00;;
60610;SDS011;46439;51.164;13.572;2023-02-28T14:51:48;16.30;;;8.40;;
60610;SDS011;46439;51.164;13.572;2023-02-28T14:54:28;19.30;;;8.80;;
60610;SDS011;46439;51.164;13.572;2023-02-28T14:56:57;15.10;;;9.10;;
60610;SDS011;46439;51.164;13.572;2023-02-28T14:59:26;16.40;;;8.80;;
60610;SDS011;46439;51.164;13.572;2023-02-28T15:02:17;13.40;;;8.30;;
60610;SDS011;46439;51.164;13.572;2023-02-28T15:04:53;16.70;;;8.50;;
60610;SDS011;46439;51.164;13.572;2023-02-28T15:07:27;19.50;;;9.30;;
60610;SDS011;46439;51.164;13.572;2023-02-28T15:10:10;15.00;;;8.40;;
60610;SDS011;46439;51.164;13.572;2023-02-28T15:12:42;18.50;;;8.80;;
60610;SDS011;46439;51.164;13.572;2023-02-28T15:15:18;19.60;;;9.50;;
60610;SDS011;46439;51.164;13.572;2023-02-28T15:17:48;17.20;;;9.00;;
60610;SDS011;46439;51.164;13.572;2023-02-28T15:20:21;14.50;;;9.20;;
60610;SDS011;46439;51.164;13.572;2023-02-28T15:22:51;15.50;;;8.20;;
60610;SDS011;46439;51.164;13.572;2023-02-28T15:25:22;15.60;;;9.30;;
60610;SDS011;46439;51.164;13.572;2023-02-28T15:27:52;14.80;;;8.30;;
60610;SDS011;46439;51.164;13.572;2023-02-28T15:30:25;13.70;;;8.30;;
60610;SDS011;46439;51.164;13.572;2023-02-28T15:33:06;16.10;;;8.60;;
60610;SDS011;46439;51.164;13.572;2023-02-28T15:35:46;17.00;;;8.50;;
60610;SDS011;46439;51.164;13.572;2023-02-28T15:38:16;16.20;;;9.20;;